Time;durP1;ratioP1;P1;durP2;ratioP2;P2;SDS_P1;SDS_P2;PMS_P1;PMS_P2;Temp;Humidity;BMP_temperature;BMP_pressure;BME280_temperature;BME280_humidity;BME280_pressure;Samples;Min_cycle;Max_cycle;Signal;HPM_P1;HPM_P2
2021/07/24 00:00:20;;;;;;;14.43;12.43;;;24.60;82.80;;;;;;4993034;28;20952;-77
2021/07/24 00:02:45;;;;;;;15.13;12.50;;;24.70;82.80;;;;;;4993407;28;20435;-77
2021/07/24 00:05:11;;;;;;;14.80;12.27;;;24.70;82.70;;;;;;4993836;28;20677;-77
2021/07/24 00:07:37;;;;;;;13.30;11.87;;;24.70;82.90;;;;;;4995972;28;20190;-78
2021/07/24 00:10:04;;;;;;;15.33;12.37;;;24.70;82.70;;;;;;4997729;28;21072;-78
2021/07/24 00:12:29;;;;;;;13.00;11.60;;;24.60;83.20;;;;;;5003390;28;20436;-77
2021/07/24 00:14:56;;;;;;;17.97;12.93;;;24.60;83.40;;;;;;5013692;28;21278;-77
2021/07/24 00:17:22;;;;;;;14.40;11.50;;;24.70;83.30;;;;;;5009342;28;20241;-78
2021/07/24 00:19:47;;;;;;;14.63;11.50;;;24.70;83.50;;;;;;5010578;28;20458;-78
2021/07/24 00:22:13;;;;;;;15.63;11.93;;;24.40;85.60;;;;;;4994199;28;20220;-78
2021/07/24 00:24:39;;;;;;;14.10;12.60;;;24.40;85.00;;;;;;5015006;28;20248;-77
2021/07/24 00:27:08;;;;;;;12.33;10.87;;;24.30;85.10;;;;;;5007860;28;20185;-78
2021/07/24 00:29:34;;;;;;;13.23;11.50;;;24.20;85.70;;;;;;5001474;28;20249;-77
2021/07/24 00:31:59;;;;;;;17.03;12.17;;;24.30;85.60;;;;;;5004410;28;20455;-78
2021/07/24 00:34:25;;;;;;;12.83;11.63;;;24.10;85.70;;;;;;5005823;28;20547;-78
2021/07/24 00:36:51;;;;;;;19.90;12.33;;;24.10;86.40;;;;;;5007466;28;20221;-78
2021/07/24 00:39:16;;;;;;;14.40;12.33;;;24.20;86.30;;;;;;5004336;28;20193;-78
2021/07/24 00:41:46;;;;;;;12.80;11.50;;;24.20;85.90;;;;;;4986955;28;20192;-78
2021/07/24 00:44:16;;;;;;;15.87;12.43;;;24.20;86.30;;;;;;5010804;28;20212;-79
2021/07/24 00:46:43;;;;;;;13.93;12.47;;;24.10;85.80;;;;;;5010345;28;20459;-77
2021/07/24 00:49:11;;;;;;;13.83;11.67;;;24.00;86.60;;;;;;5009722;28;20460;-78
2021/07/24 00:51:38;;;;;;;12.70;11.40;;;23.60;87.40;;;;;;5008558;28;20447;-78
2021/07/24 00:54:04;;;;;;;16.77;12.47;;;23.70;88.20;;;;;;5010823;28;20814;-77
2021/07/24 00:56:31;;;;;;;21.00;11.77;;;23.80;88.30;;;;;;4995014;28;20428;-77
2021/07/24 00:58:58;;;;;;;12.60;11.10;;;23.90;88.10;;;;;;5000717;28;20447;-78
2021/07/24 01:01:25;;;;;;;14.43;11.60;;;23.80;87.80;;;;;;4996891;28;20923;-77
2021/07/24 01:03:51;;;;;;;14.30;12.23;;;23.80;88.20;;;;;;4990028;28;20436;-77
2021/07/24 01:06:17;;;;;;;14.80;12.23;;;23.80;88.40;;;;;;4994173;28;20432;-77
2021/07/24 01:08:43;;;;;;;14.50;12.70;;;23.80;88.30;;;;;;4990202;28;20470;-77
2021/07/24 01:11:11;;;;;;;18.90;12.27;;;23.80;87.70;;;;;;4994027;28;20444;-77
2021/07/24 01:13:39;;;;;;;14.23;11.37;;;23.80;88.20;;;;;;4994105;28;20432;-77
2021/07/24 01:16:05;;;;;;;15.00;13.40;;;23.60;88.30;;;;;;4992364;28;20460;-77
2021/07/24 01:18:31;;;;;;;14.23;12.83;;;23.60;89.60;;;;;;4997459;28;21091;-77
2021/07/24 01:21:00;;;;;;;13.93;11.80;;;23.70;89.50;;;;;;4979554;28;20432;-76
2021/07/24 01:23:26;;;;;;;13.70;10.93;;;23.60;89.70;;;;;;4997950;28;20189;-77
2021/07/24 01:25:53;;;;;;;14.90;12.50;;;23.60;89.80;;;;;;4998713;28;20507;-77
2021/07/24 01:28:27;;;;;;;14.93;12.67;;;23.40;90.10;;;;;;4999489;28;20201;-77
2021/07/24 01:30:55;;;;;;;13.30;11.90;;;23.40;90.50;;;;;;4998789;28;20435;-77
2021/07/24 01:33:21;;;;;;;15.40;13.13;;;23.60;90.40;;;;;;5002336;28;20424;-77
2021/07/24 01:35:47;;;;;;;15.43;13.03;;;23.50;90.40;;;;;;4997954;28;20490;-77
2021/07/24 01:38:17;;;;;;;15.30;12.70;;;23.60;90.40;;;;;;5002268;28;20448;-78
2021/07/24 01:40:43;;;;;;;13.27;11.87;;;23.60;90.40;;;;;;5003226;28;20483;-77
2021/07/24 01:43:09;;;;;;;13.53;11.47;;;23.70;90.70;;;;;;5000398;28;20479;-79
2021/07/24 01:45:36;;;;;;;13.60;11.90;;;23.70;90.40;;;;;;4997948;28;20295;-78
2021/07/24 01:48:05;;;;;;;15.30;13.70;;;23.60;90.60;;;;;;5001777;28;21082;-78
2021/07/24 01:53:18;;;;;;;16.50;12.50;;;23.60;91.00;;;;;;5002038;28;20489;-78
2021/07/24 01:55:51;;;;;;;14.30;11.77;;;23.60;91.00;;;;;;5003610;28;20538;-78
2021/07/24 01:58:27;;;;;;;12.70;11.33;;;23.50;91.20;;;;;;5000346;28;20444;-78
2021/07/24 02:00:53;;;;;;;13.20;11.87;;;23.60;91.20;;;;;;5001513;28;20447;-77
2021/07/24 02:03:23;;;;;;;13.63;12.10;;;23.50;91.60;;;;;;5002907;28;20849;-78
2021/07/24 02:05:49;;;;;;;14.00;12.53;;;23.30;91.50;;;;;;5001183;28;20460;-79
2021/07/24 02:08:20;;;;;;;14.13;12.60;;;23.50;91.80;;;;;;5000683;28;20470;-78
2021/07/24 02:10:46;;;;;;;17.73;13.43;;;23.60;91.60;;;;;;5002062;28;20502;-79
2021/07/24 02:13:13;;;;;;;15.00;12.60;;;23.60;91.60;;;;;;4998024;28;20501;-79
2021/07/24 02:15:39;;;;;;;15.07;12.20;;;23.30;91.80;;;;;;5001123;28;20460;-79
2021/07/24 02:18:05;;;;;;;15.50;12.80;;;23.20;92.30;;;;;;4982793;28;20440;-79
2021/07/24 02:20:31;;;;;;;14.17;11.93;;;23.20;92.70;;;;;;4982559;28;20593;-79
2021/07/24 02:22:58;;;;;;;14.53;13.03;;;23.40;92.50;;;;;;5002657;28;20471;-78
2021/07/24 02:25:24;;;;;;;17.40;12.70;;;23.50;92.40;;;;;;5002314;28;20457;-78
2021/07/24 02:27:51;;;;;;;14.50;11.27;;;23.40;92.40;;;;;;5000084;28;20847;-78
2021/07/24 02:30:17;;;;;;;13.47;12.00;;;23.30;92.60;;;;;;5000464;28;20850;-77
2021/07/24 02:32:44;;;;;;;13.97;11.40;;;23.40;92.90;;;;;;5002520;28;20432;-78
2021/07/24 02:35:11;;;;;;;14.40;11.97;;;23.20;93.40;;;;;;5000842;28;20489;-77
2021/07/24 02:37:37;;;;;;;17.23;12.03;;;23.30;93.20;;;;;;4998562;28;20428;-77
2021/07/24 02:40:04;;;;;;;13.40;11.50;;;23.30;93.50;;;;;;4977722;28;20455;-77
2021/07/24 02:42:29;;;;;;;15.13;13.27;;;23.50;93.10;;;;;;4994417;28;20201;-77
2021/07/24 02:44:55;;;;;;;13.43;12.03;;;23.40;93.30;;;;;;4997772;28;20459;-76
2021/07/24 02:47:21;;;;;;;16.00;14.33;;;23.40;93.50;;;;;;4996431;28;20225;-77
2021/07/24 02:49:46;;;;;;;14.60;11.77;;;23.30;93.80;;;;;;4997606;28;20209;-77
2021/07/24 02:52:12;;;;;;;14.60;11.93;;;23.50;93.40;;;;;;4997517;28;20194;-77
2021/07/24 02:54:38;;;;;;;14.67;13.07;;;23.60;93.20;;;;;;4992376;28;20338;-77
2021/07/24 02:57:04;;;;;;;13.50;11.60;;;23.70;93.30;;;;;;4993418;28;20668;-78
2021/07/24 02:59:30;;;;;;;12.83;11.43;;;23.50;93.60;;;;;;4997292;28;21395;-77
2021/07/24 03:01:56;;;;;;;15.63;10.87;;;23.60;93.40;;;;;;4993623;28;20424;-78
2021/07/24 03:04:22;;;;;;;15.03;12.80;;;23.70;93.40;;;;;;4993292;28;20236;-77
2021/07/24 03:06:47;;;;;;;13.07;11.77;;;23.70;93.20;;;;;;4996530;28;21030;-77
2021/07/24 03:09:15;;;;;;;14.50;12.67;;;23.50;93.50;;;;;;4994875;28;20224;-77
2021/07/24 03:11:41;;;;;;;13.97;12.50;;;23.50;93.70;;;;;;4994100;28;20312;-78
2021/07/24 03:14:07;;;;;;;14.77;13.27;;;23.50;93.80;;;;;;4979750;28;20452;-77
2021/07/24 03:16:33;;;;;;;18.03;12.33;;;23.40;94.10;;;;;;4992440;28;20467;-77
2021/07/24 03:18:58;;;;;;;14.13;12.63;;;23.50;94.00;;;;;;4973501;28;20461;-77
2021/07/24 03:21:24;;;;;;;13.63;12.23;;;23.40;94.10;;;;;;4994967;28;20197;-77
2021/07/24 03:23:50;;;;;;;14.77;13.23;;;23.50;94.00;;;;;;4995829;28;20273;-78
2021/07/24 03:26:17;;;;;;;13.73;11.90;;;23.60;94.20;;;;;;4993525;28;20186;-77
2021/07/24 03:28:43;;;;;;;12.57;11.37;;;23.60;94.00;;;;;;4995617;28;20206;-77
2021/07/24 03:31:09;;;;;;;14.10;12.13;;;23.50;94.20;;;;;;4994365;28;20591;-77
2021/07/24 03:33:34;;;;;;;15.27;13.13;;;23.40;94.70;;;;;;4994554;28;20507;-76
2021/07/24 03:36:00;;;;;;;13.17;11.80;;;23.30;94.80;;;;;;4995083;28;20216;-77
2021/07/24 03:38:27;;;;;;;14.90;12.37;;;23.40;94.60;;;;;;4973624;28;20197;-77
2021/07/24 03:40:53;;;;;;;13.27;11.87;;;23.40;94.60;;;;;;4996015;28;20265;-77
2021/07/24 03:43:19;;;;;;;13.80;12.30;;;23.40;94.80;;;;;;4993409;28;20448;-77
2021/07/24 03:45:44;;;;;;;15.20;12.40;;;23.40;95.00;;;;;;4977631;28;21120;-76
2021/07/24 03:48:10;;;;;;;16.40;12.87;;;23.30;95.10;;;;;;4993549;28;20912;-77
2021/07/24 03:50:36;;;;;;;13.53;12.13;;;23.00;95.60;;;;;;4993050;28;20181;-76
2021/07/24 03:53:01;;;;;;;14.40;12.93;;;22.80;96.10;;;;;;4994347;28;20567;-77
2021/07/24 03:55:28;;;;;;;15.23;13.20;;;22.80;96.40;;;;;;4994083;28;20206;-77
2021/07/24 03:57:55;;;;;;;12.90;11.67;;;22.80;96.70;;;;;;4995279;28;20193;-77
2021/07/24 04:00:22;;;;;;;14.90;13.30;;;22.80;97.00;;;;;;4994624;28;20424;-77
2021/07/24 04:03:01;;;;;;;15.93;12.60;;;22.80;97.20;;;;;;4994314;28;22489;-74
2021/07/24 04:05:26;;;;;;;15.50;12.57;;;22.60;97.60;;;;;;4991250;28;20498;-75
2021/07/24 04:07:52;;;;;;;16.70;13.27;;;22.70;98.20;;;;;;4991515;28;20436;-75
2021/07/24 04:10:18;;;;;;;13.87;12.47;;;22.40;98.60;;;;;;4987025;28;20200;-75
2021/07/24 04:12:43;;;;;;;16.53;12.07;;;22.40;99.10;;;;;;4993396;28;20284;-74
2021/07/24 04:15:09;;;;;;;20.37;13.97;;;22.30;99.50;;;;;;4991659;28;20743;-74
2021/07/24 04:17:35;;;;;;;12.93;11.60;;;22.40;99.40;;;;;;4992416;28;20206;-79
2021/07/24 04:20:02;;;;;;;13.33;11.90;;;22.60;99.50;;;;;;4996428;28;20415;-74
2021/07/24 04:22:28;;;;;;;14.57;12.87;;;22.50;99.80;;;;;;4990269;28;20220;-74
2021/07/24 04:24:54;;;;;;;17.57;12.57;;;22.60;99.70;;;;;;4992945;28;20467;-74
2021/07/24 04:27:19;;;;;;;14.17;12.27;;;22.70;99.40;;;;;;4993809;28;20436;-74
2021/07/24 04:29:45;;;;;;;14.37;12.87;;;22.70;99.50;;;;;;4988528;28;20217;-73
2021/07/24 04:32:11;;;;;;;12.83;11.37;;;22.80;99.60;;;;;;4991135;28;20277;-74
2021/07/24 04:34:36;;;;;;;13.33;11.73;;;23.00;99.40;;;;;;4990377;28;20389;-76
2021/07/24 04:37:02;;;;;;;16.10;12.97;;;23.00;99.10;;;;;;4988661;28;20569;-75
2021/07/24 04:39:28;;;;;;;19.80;13.00;;;23.00;99.10;;;;;;4995299;28;20711;-74
2021/07/24 04:41:53;;;;;;;14.27;12.30;;;22.50;99.90;;;;;;4991018;28;20280;-74
2021/07/24 04:44:19;;;;;;;18.10;13.23;;;22.20;99.90;;;;;;4991447;28;20244;-75
2021/07/24 04:46:45;;;;;;;17.00;13.13;;;21.90;99.90;;;;;;4993642;28;20217;-75
2021/07/24 04:49:10;;;;;;;15.80;13.70;;;21.90;99.90;;;;;;4991351;28;20217;-74
2021/07/24 04:51:36;;;;;;;14.97;12.80;;;21.60;99.90;;;;;;4990150;28;20178;-74
2021/07/24 04:54:04;;;;;;;16.10;13.23;;;21.70;99.90;;;;;;4990038;28;20589;-75
2021/07/24 04:56:31;;;;;;;15.77;13.17;;;21.60;99.90;;;;;;4990710;28;20428;-75
2021/07/24 04:58:59;;;;;;;16.20;12.40;;;21.40;99.90;;;;;;4988480;28;20441;-74
2021/07/24 05:01:24;;;;;;;15.43;13.10;;;21.60;99.90;;;;;;4991480;28;20459;-76
2021/07/24 05:03:50;;;;;;;15.13;13.20;;;21.70;99.90;;;;;;4989874;28;20429;-72
2021/07/24 05:06:16;;;;;;;14.10;12.67;;;21.30;99.90;;;;;;4991328;28;20194;-75
2021/07/24 05:08:42;;;;;;;13.47;11.83;;;21.50;99.90;;;;;;4994429;28;20197;-74
2021/07/24 05:11:11;;;;;;;20.03;13.10;;;21.70;99.90;;;;;;4988757;28;20433;-74
2021/07/24 05:13:36;;;;;;;18.47;14.53;;;21.60;99.90;;;;;;4989012;28;20431;-73
2021/07/24 05:16:02;;;;;;;18.90;13.00;;;21.50;99.90;;;;;;4991918;28;20858;-74
2021/07/24 05:18:27;;;;;;;15.17;12.87;;;21.40;99.90;;;;;;4991425;28;20268;-75
2021/07/24 05:20:56;;;;;;;17.53;13.03;;;21.50;99.90;;;;;;4990047;28;20185;-75
2021/07/24 05:23:21;;;;;;;15.53;13.83;;;21.40;99.90;;;;;;4990216;28;20194;-75
2021/07/24 05:25:47;;;;;;;14.40;13.00;;;21.50;99.90;;;;;;4970730;28;20459;-74
2021/07/24 05:28:13;;;;;;;14.90;13.30;;;21.50;99.90;;;;;;4990455;28;20248;-74
2021/07/24 05:30:38;;;;;;;15.10;13.50;;;21.40;99.90;;;;;;4994731;28;20181;-75
2021/07/24 05:33:04;;;;;;;15.03;12.63;;;21.50;99.90;;;;;;4973117;28;20190;-75
2021/07/24 05:35:30;;;;;;;14.70;13.10;;;21.50;99.90;;;;;;4989884;28;20735;-74
2021/07/24 05:37:55;;;;;;;14.67;13.17;;;21.70;99.90;;;;;;4997931;28;20215;-74
2021/07/24 05:40:21;;;;;;;18.77;15.03;;;21.50;99.90;;;;;;4992501;28;20182;-74
2021/07/24 05:42:47;;;;;;;15.63;13.00;;;21.30;99.90;;;;;;4987668;28;20687;-74
2021/07/24 05:45:12;;;;;;;21.10;14.43;;;21.30;99.90;;;;;;4977669;28;20710;-75
2021/07/24 05:47:38;;;;;;;14.50;12.73;;;21.60;99.90;;;;;;4989691;28;20207;-74
2021/07/24 05:50:04;;;;;;;19.50;14.03;;;21.60;99.90;;;;;;4992109;28;20254;-74
2021/07/24 05:52:30;;;;;;;15.97;13.90;;;21.50;99.90;;;;;;4991767;28;20198;-74
2021/07/24 05:54:56;;;;;;;14.63;12.23;;;21.70;99.90;;;;;;4990479;28;20838;-74
2021/07/24 05:57:22;;;;;;;17.13;12.20;;;21.80;99.90;;;;;;4990007;28;20449;-74
2021/07/24 05:59:47;;;;;;;17.33;14.20;;;21.60;99.90;;;;;;4972442;28;20187;-75
2021/07/24 06:02:15;;;;;;;14.60;13.00;;;21.60;99.90;;;;;;4990190;28;20229;-74
2021/07/24 06:04:42;;;;;;;19.33;14.03;;;21.50;99.90;;;;;;4992882;28;20225;-75
2021/07/24 06:07:08;;;;;;;19.63;12.40;;;21.50;99.90;;;;;;4995428;28;20425;-75
2021/07/24 06:09:34;;;;;;;16.77;13.23;;;21.50;99.90;;;;;;4992174;28;20492;-75
2021/07/24 06:12:00;;;;;;;15.70;14.03;;;21.40;99.90;;;;;;4992579;28;20520;-75
2021/07/24 06:14:26;;;;;;;16.07;13.23;;;21.70;99.90;;;;;;4997453;28;20459;-74
2021/07/24 06:16:52;;;;;;;21.43;14.57;;;21.70;99.90;;;;;;4994938;28;20703;-75
2021/07/24 06:19:21;;;;;;;15.87;13.17;;;21.70;99.90;;;;;;4993890;28;20269;-74
2021/07/24 06:21:47;;;;;;;19.77;14.80;;;21.70;99.90;;;;;;4978311;28;20464;-75
2021/07/24 06:24:16;;;;;;;17.53;14.10;;;21.60;99.90;;;;;;4992228;28;20478;-74
2021/07/24 06:26:42;;;;;;;16.13;14.43;;;21.80;99.90;;;;;;4992469;28;20480;-75
2021/07/24 06:29:08;;;;;;;18.70;14.27;;;21.90;99.90;;;;;;4995587;28;20518;-74
2021/07/24 06:31:35;;;;;;;16.03;14.33;;;22.10;99.90;;;;;;4995169;28;20178;-75
2021/07/24 06:34:02;;;;;;;16.00;14.30;;;22.00;99.90;;;;;;4992774;28;20478;-74
2021/07/24 06:36:28;;;;;;;22.30;14.70;;;21.90;99.90;;;;;;4998015;28;20974;-75
2021/07/24 06:38:54;;;;;;;20.60;15.47;;;21.80;99.90;;;;;;4992781;28;20416;-74
2021/07/24 06:41:20;;;;;;;17.17;15.27;;;21.80;99.90;;;;;;4993300;28;20986;-74
2021/07/24 06:43:45;;;;;;;16.73;13.60;;;21.80;99.90;;;;;;4980478;28;20189;-74
2021/07/24 06:46:12;;;;;;;19.37;13.60;;;22.00;99.90;;;;;;4991459;28;21192;-75
2021/07/24 06:48:39;;;;;;;14.97;13.40;;;22.20;99.90;;;;;;4993872;28;20583;-74
2021/07/24 06:51:08;;;;;;;16.30;14.60;;;22.30;99.90;;;;;;4994975;28;20950;-74
2021/07/24 06:53:37;;;;;;;18.03;14.37;;;22.60;99.90;;;;;;4990359;28;21154;-74
2021/07/24 06:56:03;;;;;;;17.60;14.30;;;22.60;99.90;;;;;;4991832;28;20862;-74
2021/07/24 06:58:29;;;;;;;16.10;14.40;;;22.70;99.90;;;;;;4990689;28;20443;-74
2021/07/24 07:00:55;;;;;;;20.07;14.30;;;22.60;99.90;;;;;;4995261;28;20429;-74
2021/07/24 07:03:21;;;;;;;16.77;13.23;;;22.70;99.90;;;;;;4992926;28;20192;-74
2021/07/24 07:05:46;;;;;;;17.87;15.00;;;22.70;99.90;;;;;;4995530;28;20886;-73
2021/07/24 07:08:12;;;;;;;20.83;14.27;;;22.70;99.90;;;;;;4991999;28;21766;-75
2021/07/24 07:10:38;;;;;;;18.40;15.80;;;22.50;99.90;;;;;;4995340;28;20192;-73
2021/07/24 07:13:03;;;;;;;17.40;14.40;;;22.30;99.90;;;;;;4992918;28;20182;-75
2021/07/24 07:15:29;;;;;;;18.60;15.67;;;22.40;99.90;;;;;;4991949;28;20300;-75
2021/07/24 07:17:55;;;;;;;18.67;15.37;;;22.30;99.90;;;;;;4987453;28;20273;-73
2021/07/24 07:20:21;;;;;;;16.30;13.60;;;22.40;99.90;;;;;;4992192;28;20186;-74
2021/07/24 07:22:47;;;;;;;15.27;13.73;;;22.80;99.90;;;;;;4995399;28;20424;-74
2021/07/24 07:25:13;;;;;;;15.30;13.73;;;23.20;99.90;;;;;;4987652;28;21054;-74
2021/07/24 07:27:44;;;;;;;15.43;13.60;;;23.50;99.90;;;;;;4991620;28;20433;-73
2021/07/24 07:30:12;;;;;;;17.03;14.10;;;23.50;99.90;;;;;;4992697;28;20544;-74
2021/07/24 07:32:38;;;;;;;16.70;14.83;;;23.60;99.90;;;;;;4994306;28;20452;-74
2021/07/24 07:35:04;;;;;;;17.90;13.67;;;23.70;99.90;;;;;;4994466;28;20437;-74
2021/07/24 07:37:30;;;;;;;17.83;15.10;;;23.40;99.90;;;;;;4990743;28;20194;-74
2021/07/24 07:39:56;;;;;;;18.40;15.60;;;23.50;99.90;;;;;;4992439;28;20424;-74
2021/07/24 07:42:22;;;;;;;20.60;14.77;;;23.70;99.90;;;;;;4997368;28;20445;-75
2021/07/24 07:44:47;;;;;;;17.07;14.33;;;23.60;99.90;;;;;;4993396;28;20680;-75
2021/07/24 07:47:13;;;;;;;17.07;15.00;;;23.90;99.90;;;;;;4989679;28;20194;-75
2021/07/24 07:49:39;;;;;;;17.17;14.13;;;24.20;99.90;;;;;;4993007;28;20268;-75
2021/07/24 07:52:06;;;;;;;19.33;14.00;;;24.30;99.90;;;;;;4993590;28;20190;-75
2021/07/24 07:54:35;;;;;;;16.07;14.33;;;24.40;99.90;;;;;;4990948;28;20206;-75
2021/07/24 07:57:01;;;;;;;16.20;14.37;;;24.40;99.90;;;;;;4991739;28;20437;-74
2021/07/24 07:59:27;;;;;;;18.87;14.80;;;24.30;99.90;;;;;;4994372;28;20433;-74
2021/07/24 08:01:53;;;;;;;20.47;15.37;;;24.60;99.90;;;;;;4993165;28;21172;-74
2021/07/24 08:04:18;;;;;;;16.87;15.07;;;24.50;99.90;;;;;;4992222;28;20602;-74
2021/07/24 08:06:44;;;;;;;18.20;14.13;;;24.30;99.90;;;;;;4956585;28;20452;-75
2021/07/24 08:09:10;;;;;;;19.73;15.20;;;24.20;99.90;;;;;;4990441;28;20213;-74
2021/07/24 08:11:36;;;;;;;20.70;15.00;;;24.00;99.90;;;;;;4993005;28;20189;-74
2021/07/24 08:14:02;;;;;;;17.70;15.23;;;24.30;99.90;;;;;;4991468;28;20227;-74
2021/07/24 08:16:28;;;;;;;16.57;14.77;;;24.50;99.90;;;;;;4988201;28;20468;-73
2021/07/24 08:18:53;;;;;;;19.97;13.47;;;24.40;99.90;;;;;;4990935;28;20194;-74
2021/07/24 08:21:19;;;;;;;24.50;20.70;;;24.60;99.90;;;;;;4995765;28;20235;-76
2021/07/24 08:23:45;;;;;;;17.70;15.80;;;24.80;99.90;;;;;;4974777;28;20200;-73
2021/07/24 08:26:11;;;;;;;17.23;15.47;;;25.00;99.90;;;;;;4992635;28;20201;-75
2021/07/24 08:28:37;;;;;;;18.27;14.13;;;25.20;99.90;;;;;;4994908;28;20197;-74
2021/07/24 08:31:03;;;;;;;25.73;21.47;;;25.40;99.90;;;;;;4991040;28;20440;-74
2021/07/24 08:33:29;;;;;;;19.97;17.53;;;25.60;99.90;;;;;;4994713;28;20432;-74
2021/07/24 08:35:55;;;;;;;20.77;16.23;;;25.60;99.90;;;;;;4992474;28;20997;-75
2021/07/24 08:38:21;;;;;;;17.53;15.40;;;25.80;99.90;;;;;;4990723;28;20202;-76
2021/07/24 08:40:48;;;;;;;20.63;18.13;;;25.90;99.90;;;;;;4990000;28;20530;-74
2021/07/24 08:43:14;;;;;;;23.27;18.50;;;25.80;99.90;;;;;;4989313;28;21064;-74
2021/07/24 08:45:40;;;;;;;16.83;12.70;;;25.90;99.90;;;;;;4989684;28;21120;-73
2021/07/24 08:48:06;;;;;;;17.37;13.93;;;26.00;99.90;;;;;;4992714;28;20460;-74
2021/07/24 08:50:34;;;;;;;16.20;14.03;;;26.30;99.90;;;;;;4995301;28;21047;-74
2021/07/24 08:53:05;;;;;;;17.00;15.20;;;26.30;99.90;;;;;;4992601;28;20432;-75
2021/07/24 08:55:32;;;;;;;15.80;13.47;;;26.00;99.90;;;;;;4991575;28;20576;-74
2021/07/24 08:57:59;;;;;;;17.27;13.27;;;25.90;99.90;;;;;;4991237;28;20940;-74
2021/07/24 09:00:27;;;;;;;13.37;11.77;;;25.80;99.90;;;;;;4993380;28;20805;-75
2021/07/24 09:02:56;;;;;;;15.60;13.90;;;26.10;99.90;;;;;;4992463;28;20453;-74
2021/07/24 09:05:22;;;;;;;18.07;14.03;;;26.30;99.90;;;;;;4992705;28;20465;-74
2021/07/24 09:07:50;;;;;;;15.37;12.87;;;26.30;99.90;;;;;;4990536;28;20852;-75
2021/07/24 09:10:18;;;;;;;13.60;12.20;;;26.20;99.90;;;;;;4998186;28;20460;-75
2021/07/24 09:12:46;;;;;;;13.20;11.77;;;26.50;99.90;;;;;;4973644;28;20432;-74
2021/07/24 09:15:14;;;;;;;15.17;13.60;;;26.40;99.90;;;;;;4988742;28;20460;-74
2021/07/24 09:17:45;;;;;;;15.67;12.77;;;26.30;99.90;;;;;;4990759;28;20504;-74
2021/07/24 09:20:12;;;;;;;14.53;12.37;;;26.00;99.90;;;;;;4987663;28;20447;-74
2021/07/24 09:22:43;;;;;;;14.57;13.03;;;26.30;99.90;;;;;;4990367;28;20417;-73
2021/07/24 09:25:15;;;;;;;13.47;12.10;;;25.90;99.90;;;;;;4990454;28;21003;-74
2021/07/24 09:27:49;;;;;;;13.30;11.97;;;26.00;99.90;;;;;;4991146;28;20470;-73
2021/07/24 09:30:32;;;;;;;14.10;12.80;;;25.90;99.90;;;;;;4990246;28;20837;-73
2021/07/24 09:33:10;;;;;;;12.70;11.30;;;25.80;99.90;;;;;;4991285;28;20424;-74
2021/07/24 09:35:37;;;;;;;15.07;12.73;;;26.00;99.90;;;;;;4991823;28;20456;-74
2021/07/24 09:38:13;;;;;;;14.13;11.63;;;26.00;99.90;;;;;;4992877;28;20516;-75
2021/07/24 09:40:41;;;;;;;12.40;9.90;;;26.10;99.90;;;;;;4996820;28;21211;-75
2021/07/24 09:43:28;;;;;;;10.83;9.73;;;26.00;99.90;;;;;;4994998;28;20924;-75
2021/07/24 09:46:20;;;;;;;11.90;10.10;;;26.10;99.90;;;;;;4993064;28;20468;-73
2021/07/24 09:48:50;;;;;;;16.03;10.80;;;26.10;99.90;;;;;;4976438;28;20468;-73
2021/07/24 09:51:37;;;;;;;14.93;10.83;;;26.30;99.90;;;;;;4995345;28;20423;-75
2021/07/24 09:54:04;;;;;;;13.87;10.00;;;26.60;99.90;;;;;;4995037;28;20448;-74
2021/07/24 09:57:02;;;;;;;9.17;8.27;;;26.40;99.90;;;;;;4996764;28;20978;-75
2021/07/24 09:59:32;;;;;;;14.40;10.43;;;26.50;99.90;;;;;;4994347;28;20444;-74
2021/07/24 10:02:03;;;;;;;12.13;9.87;;;26.20;99.90;;;;;;4990726;28;20448;-75
2021/07/24 10:04:33;;;;;;;11.13;10.03;;;26.20;99.90;;;;;;4997065;28;20502;-75
2021/07/24 10:07:08;;;;;;;12.90;9.23;;;26.10;99.90;;;;;;4994531;28;20515;-74
2021/07/24 10:09:39;;;;;;;11.33;9.20;;;26.10;99.90;;;;;;4993250;28;20871;-74
2021/07/24 10:12:13;;;;;;;11.87;10.50;;;26.20;99.90;;;;;;4997361;28;20425;-74
2021/07/24 10:14:39;;;;;;;12.23;11.00;;;26.20;99.90;;;;;;4996406;28;20447;-73
2021/07/24 10:17:06;;;;;;;11.90;10.70;;;26.30;99.90;;;;;;4996128;28;20452;-75
2021/07/24 10:19:32;;;;;;;15.03;9.40;;;26.40;99.90;;;;;;4995919;28;20440;-74
2021/07/24 10:21:59;;;;;;;9.93;8.93;;;26.40;99.90;;;;;;4991763;28;20854;-75
2021/07/24 10:24:26;;;;;;;10.57;8.97;;;26.30;99.90;;;;;;4979831;28;20486;-75
2021/07/24 10:27:05;;;;;;;15.20;10.00;;;26.40;99.90;;;;;;4998227;28;20424;-74
2021/07/24 10:29:38;;;;;;;10.97;9.83;;;26.30;99.90;;;;;;4998229;28;20460;-75
2021/07/24 10:32:12;;;;;;;9.43;8.30;;;26.40;99.90;;;;;;4993783;28;20428;-75
2021/07/24 10:34:46;;;;;;;10.27;9.27;;;26.50;99.90;;;;;;4994697;28;21017;-74
2021/07/24 10:37:44;;;;;;;10.60;9.50;;;26.60;99.90;;;;;;4991860;28;20436;-72
2021/07/24 10:40:25;;;;;;;10.20;9.20;;;26.70;99.90;;;;;;4994678;28;20511;-75
2021/07/24 10:42:52;;;;;;;11.80;9.80;;;26.70;99.90;;;;;;4991492;28;20782;-74
2021/07/24 10:45:33;;;;;;;10.07;9.07;;;26.90;99.90;;;;;;4992933;28;20448;-75
2021/07/24 10:48:13;;;;;;;11.70;9.83;;;27.00;99.90;;;;;;4994429;28;20446;-75
2021/07/24 10:51:12;;;;;;;12.60;9.50;;;27.20;99.90;;;;;;4991159;28;20429;-74
2021/07/24 10:54:16;;;;;;;11.77;9.40;;;27.20;99.90;;;;;;4995585;28;20972;-75
2021/07/24 10:56:42;;;;;;;10.87;9.77;;;27.20;99.90;;;;;;4915811;29;20440;-75
2021/07/24 10:59:17;;;;;;;11.27;10.10;;;27.30;99.90;;;;;;4911563;29;20457;-76
2021/07/24 11:01:59;;;;;;;11.10;8.70;;;27.40;99.90;;;;;;4959905;28;20478;-74
2021/07/24 11:04:37;;;;;;;11.43;10.20;;;27.80;99.90;;;;;;4993130;28;20534;-75
2021/07/24 11:07:21;;;;;;;10.37;8.70;;;28.20;99.90;;;;;;4993769;28;20510;-74
2021/07/24 11:10:06;;;;;;;12.77;9.67;;;28.50;99.90;;;;;;4993535;28;20521;-74
2021/07/24 11:12:37;;;;;;;10.17;9.07;;;28.50;99.90;;;;;;4993226;28;20428;-74
2021/07/24 11:15:20;;;;;;;9.50;8.60;;;28.60;99.90;;;;;;4979216;28;20989;-75
2021/07/24 11:18:24;;;;;;;8.63;7.73;;;28.80;99.90;;;;;;4993321;28;20439;-74
2021/07/24 11:20:51;;;;;;;10.43;9.30;;;28.70;99.90;;;;;;4990397;28;20432;-74
2021/07/24 11:23:18;;;;;;;10.50;9.37;;;28.70;99.90;;;;;;4999842;28;21161;-75
2021/07/24 11:25:46;;;;;;;10.50;9.50;;;28.80;99.90;;;;;;4991027;28;20472;-75
2021/07/24 11:28:22;;;;;;;10.30;8.77;;;28.80;99.90;;;;;;4994476;28;20448;-75
2021/07/24 11:31:06;;;;;;;9.57;8.67;;;28.80;99.90;;;;;;4996090;28;20787;-75
2021/07/24 11:33:32;;;;;;;8.43;7.53;;;28.70;99.90;;;;;;4993203;28;20440;-73
2021/07/24 11:36:05;;;;;;;7.70;6.87;;;28.80;99.90;;;;;;4994130;28;20439;-74
2021/07/24 11:38:32;;;;;;;6.83;6.20;;;28.80;99.90;;;;;;4993198;28;20941;-75
2021/07/24 11:40:58;;;;;;;7.83;6.37;;;28.50;97.90;;;;;;4993538;28;20421;-75
2021/07/24 11:43:25;;;;;;;9.17;6.53;;;28.60;99.10;;;;;;4990481;28;20860;-74
2021/07/24 11:45:59;;;;;;;7.10;6.40;;;28.70;98.80;;;;;;4995716;28;20595;-74
2021/07/24 11:48:24;;;;;;;8.50;6.73;;;28.70;99.30;;;;;;4990409;28;20485;-74
2021/07/24 11:51:00;;;;;;;9.30;7.07;;;28.80;99.70;;;;;;4993728;28;20510;-75
2021/07/24 11:53:26;;;;;;;6.53;5.93;;;28.80;99.90;;;;;;4993869;28;20220;-74
2021/07/24 11:55:51;;;;;;;7.30;5.40;;;28.90;99.30;;;;;;4993457;28;20530;-76
2021/07/24 11:58:17;;;;;;;6.40;5.03;;;29.10;97.20;;;;;;4989388;28;20279;-75
2021/07/24 12:00:46;;;;;;;6.47;4.90;;;29.50;96.30;;;;;;4994754;28;20614;-75
2021/07/24 12:03:16;;;;;;;5.93;4.17;;;29.80;95.30;;;;;;4993286;28;20428;-74
2021/07/24 12:05:43;;;;;;;5.50;5.00;;;30.10;94.60;;;;;;4990319;28;20465;-76
2021/07/24 12:08:09;;;;;;;6.10;5.50;;;30.40;93.20;;;;;;4973707;28;20526;-75
2021/07/24 12:10:41;;;;;;;6.23;5.70;;;30.50;93.00;;;;;;4992629;28;20447;-75
2021/07/24 12:13:07;;;;;;;5.37;4.87;;;30.80;92.80;;;;;;4993446;28;20785;-75
2021/07/24 12:15:55;;;;;;;5.53;5.07;;;30.80;92.80;;;;;;4992764;28;20418;-75
2021/07/24 12:18:21;;;;;;;5.57;5.07;;;31.30;91.50;;;;;;4991779;28;20936;-75
2021/07/24 12:20:47;;;;;;;6.13;5.53;;;31.80;91.40;;;;;;4992626;28;20511;-75
2021/07/24 12:23:22;;;;;;;7.20;5.30;;;32.30;91.60;;;;;;4993825;28;20673;-75
2021/07/24 12:26:10;;;;;;;5.23;4.73;;;32.60;90.40;;;;;;4992521;28;20208;-75
2021/07/24 12:28:41;;;;;;;5.77;5.27;;;33.30;83.90;;;;;;4992243;28;20446;-76
2021/07/24 12:31:21;;;;;;;5.53;5.07;;;33.20;84.30;;;;;;4993003;28;20437;-76
2021/07/24 12:33:48;;;;;;;5.77;5.23;;;33.00;84.30;;;;;;4975431;28;20859;-75
2021/07/24 12:36:14;;;;;;;6.30;4.97;;;32.40;83.40;;;;;;4991115;28;20434;-75
2021/07/24 12:38:41;;;;;;;6.17;5.10;;;32.00;84.50;;;;;;4994718;28;20760;-75